Weather History for KGWW - October, 2012

Change the Weather History Date:

Thursday, October 11, 2012

  Actual Average (KGSB) Record (KGSB)
Temperature  
Mean Temperature 54 °F -  
Max Temperature 66 °F 74 °F 88 °F (2014)
Min Temperature 42 °F 52 °F 35 °F (2000)
Degree Days  
Heating Degree Days 11    
Growing Degree Days 4 (Base 50)    
Moisture  
Dew Point 46 °F    
Average Humidity 76    
Maximum Humidity 100    
Minimum Humidity 40    
Precipitation  
Precipitation 0.00 in - - ()
Sea Level Pressure  
Sea Level Pressure 30.23 in    
Wind  
Wind Speed 3 mph (North)    
Max Wind Speed 10 mph    
Max Gust Speed 16 mph    
Visibility 10 miles    
Events      
Averages and records for this station are not official NWS values.
T = Trace of Precipitation, MM = Missing Value Source: NWS Daily Summary

Daily Weather History Graph

Daily Weather History Graph

Search for Another Location

Airport or City:

Trip Planner

Search our weather history database for the weather conditions in past years. The results will help you decide how hot, cold, wet, or windy it might be!

Date:

Astronomy

Oct. 11, 2012 Rise Set
Actual Time 7:15 AM EDT 6:41 PM EDT
Civil Twilight 6:49 AM EDT 7:06 PM EDT
Nautical Twilight 6:20 AM EDT 7:36 PM EDT
Astronomical Twilight 5:50 AM EDT 8:05 PM EDT
Moon 2:59 AM EDT (10/11) 4:09 PM EDT (10/11)
Length of Visible Light 12h 17m
Length of Day
11h 25m
Waning Crescent, 18% of the Moon is Illuminated
Oct 11
Waning Crescent
Oct 15
New
Oct 21
First Quarter
Oct 29
Full
Nov 6
Last Quarter

Hourly Weather History & Observations

Time (EDT) Temp. Dew Point Humidity Pressure Visibility Wind Dir Wind Speed Gust Speed Precip Events Conditions
12:35 AM 53.6 °F 53.6 °F 100% 30.11 in 10.0 mi Calm Calm - N/A   Clear
12:55 AM 55.4 °F 53.6 °F 94% 30.11 in 10.0 mi West 3.5 mph - N/A   Clear
1:15 AM 55.4 °F 51.8 °F 88% 30.12 in 10.0 mi NW 3.5 mph - N/A   Clear
1:35 AM 55.4 °F 51.8 °F 88% 30.12 in 10.0 mi WNW 3.5 mph - N/A   Clear
1:55 AM 55.4 °F 51.8 °F 88% 30.13 in 10.0 mi NW 4.6 mph - N/A   Clear
2:15 AM 55.4 °F 50.0 °F 82% 30.13 in 10.0 mi NW 4.6 mph - N/A   Clear
2:35 AM 53.6 °F 50.0 °F 88% 30.14 in 10.0 mi NW 3.5 mph - N/A   Clear
2:55 AM 53.6 °F 50.0 °F 88% 30.14 in 10.0 mi Calm Calm - N/A   Clear
3:15 AM 53.6 °F 50.0 °F 88% 30.15 in 10.0 mi NW 3.5 mph - N/A   Clear
3:35 AM 53.6 °F 48.2 °F 82% 30.16 in 10.0 mi NNW 3.5 mph - N/A   Clear
3:55 AM 51.8 °F 48.2 °F 88% 30.16 in 10.0 mi NNW 3.5 mph - N/A   Clear
4:15 AM 51.8 °F 46.4 °F 82% 30.16 in 10.0 mi NNW 3.5 mph - N/A   Clear
4:35 AM 51.8 °F 46.4 °F 82% 30.16 in 10.0 mi NNW 4.6 mph - N/A   Clear
4:55 AM 50.0 °F 46.4 °F 87% 30.17 in 10.0 mi NNW 3.5 mph - N/A   Clear
5:15 AM 50.0 °F 46.4 °F 87% 30.18 in 10.0 mi NNW 3.5 mph - N/A   Clear
5:35 AM 50.0 °F 46.4 °F 87% 30.19 in 10.0 mi North 3.5 mph - N/A   Clear
5:55 AM 50.0 °F 44.6 °F 82% 30.20 in 10.0 mi North 4.6 mph - N/A   Clear
6:15 AM 50.0 °F 44.6 °F 82% 30.21 in 10.0 mi North 3.5 mph - N/A   Clear
6:35 AM 48.2 °F 44.6 °F 87% 30.22 in 10.0 mi Calm Calm - N/A   Clear
6:55 AM 46.4 °F 42.8 °F 87% 30.23 in 10.0 mi Calm Calm - N/A   Clear
7:15 AM 44.6 °F 42.8 °F 93% 30.24 in 10.0 mi Calm Calm - N/A   Clear
7:35 AM 42.8 °F 42.8 °F 100% 30.24 in 7.0 mi Calm Calm - N/A   Clear
7:55 AM 44.6 °F 44.6 °F 100% 30.26 in 7.0 mi Calm Calm - N/A   Clear
8:15 AM 48.2 °F 46.4 °F 93% 30.26 in 10.0 mi North 3.5 mph - N/A   Clear
8:35 AM 50.0 °F 46.4 °F 87% 30.27 in 10.0 mi North 4.6 mph - N/A   Clear
8:55 AM 51.8 °F 46.4 °F 82% 30.28 in 10.0 mi North 8.1 mph - N/A   Clear
9:15 AM 53.6 °F 46.4 °F 77% 30.28 in 10.0 mi North 5.8 mph - N/A   Clear
9:35 AM 55.4 °F 46.4 °F 72% 30.29 in 10.0 mi North 9.2 mph - N/A   Clear
9:55 AM 55.4 °F 44.6 °F 67% 30.30 in 10.0 mi NNE 10.4 mph - N/A   Clear
10:35 AM 59.0 °F 42.8 °F 55% 30.30 in 10.0 mi NE 10.4 mph 16.1 mph N/A   Clear
10:55 AM 60.8 °F 42.8 °F 52% 30.30 in 10.0 mi ENE 8.1 mph - N/A   Clear
11:15 AM 60.8 °F 41.0 °F 48% 30.31 in 10.0 mi NE 9.2 mph - N/A   Clear
11:35 AM 60.8 °F 41.0 °F 48% 30.31 in 10.0 mi ENE 10.4 mph - N/A   Clear
11:55 AM 62.6 °F 42.8 °F 48% 30.30 in 10.0 mi NNE 9.2 mph - N/A   Clear
12:15 PM 62.6 °F 41.0 °F 45% 30.30 in 10.0 mi NNE 4.6 mph - N/A   Clear
12:35 PM 62.6 °F 41.0 °F 45% 30.29 in 10.0 mi NE 6.9 mph - N/A   Clear
1:35 PM 64.4 °F 41.0 °F 42% 30.28 in 10.0 mi North 5.8 mph - N/A   Clear
1:55 PM 64.4 °F 41.0 °F 42% 30.26 in 10.0 mi ESE 3.5 mph - N/A   Clear
2:15 PM 64.4 °F 41.0 °F 42% 30.26 in 10.0 mi NNW 3.5 mph - N/A   Clear
2:35 PM 64.4 °F 41.0 °F 42% 30.26 in 10.0 mi Calm Calm - N/A   Clear
2:55 PM 66.2 °F 41.0 °F 40% 30.25 in 10.0 mi Calm Calm - N/A   Clear
3:15 PM 66.2 °F 42.8 °F 43% 30.25 in 10.0 mi Calm Calm - N/A   Clear
3:35 PM 66.2 °F 42.8 °F 43% 30.25 in 10.0 mi North 3.5 mph - N/A   Clear
3:55 PM 66.2 °F 42.8 °F 43% 30.25 in 10.0 mi NE 3.5 mph - N/A   Clear
4:35 PM 66.2 °F 42.8 °F 43% 30.24 in 10.0 mi SSW 3.5 mph - N/A   Clear
4:55 PM 66.2 °F 42.8 °F 43% 30.24 in 10.0 mi SSE 3.5 mph - N/A   Clear
5:15 PM 66.2 °F 42.8 °F 43% 30.24 in 10.0 mi Calm Calm - N/A   Clear
6:15 PM 60.8 °F 50.0 °F 68% 30.24 in 10.0 mi Calm Calm - N/A   Clear
6:55 PM 55.4 °F 51.8 °F 88% 30.24 in 10.0 mi Calm Calm - N/A   Clear
7:15 PM 53.6 °F 50.0 °F 88% 30.24 in 10.0 mi Calm Calm - N/A   Clear
7:35 PM 51.8 °F 50.0 °F 94% 30.24 in 10.0 mi Calm Calm - N/A   Clear
7:55 PM 51.8 °F 50.0 °F 94% 30.25 in 10.0 mi Calm Calm - N/A   Clear
8:15 PM 50.0 °F 50.0 °F 100% 30.25 in 10.0 mi Calm Calm - N/A   Clear
8:35 PM 50.0 °F 48.2 °F 94% 30.25 in 10.0 mi Calm Calm - N/A   Clear
9:15 PM 46.4 °F 46.4 °F 100% 30.26 in 10.0 mi Calm Calm - N/A   Clear
9:35 PM 46.4 °F 46.4 °F 100% 30.26 in 7.0 mi Calm Calm - N/A   Clear
9:55 PM 46.4 °F 46.4 °F 100% 30.25 in 7.0 mi Calm Calm - N/A   Clear
10:15 PM 46.4 °F 46.4 °F 100% 30.26 in 7.0 mi Calm Calm - N/A   Clear
10:55 PM 44.6 °F 44.6 °F 100% 30.26 in 5.0 mi Calm Calm - N/A   Clear
11:15 PM 44.6 °F 44.6 °F 100% 30.25 in 5.0 mi Calm Calm - N/A   Clear